Aviation Digital Data Service (ADDS)

Output produced by METARs form (1549 UTC 30 September 2014)
found at http://www.aviationweather.gov/adds/metars/
 
METAR text: KCCU 301535Z AUTO 25016G23KT 10SM SCT012 SCT020 OVC028 00/M03 A3016 RMK AO2
Conditions at: KCCU (RED CLIFF PASS , CO, US) observed 1535 UTC 30 September 2014
Temperature: 0.0°C (32°F)
Dewpoint: -3.0°C (27°F) [RH = 80%]
Pressure (altimeter): 30.16 inches Hg (1021.4 mb)
Winds: from the WSW (250 degrees) at 18 MPH (16 knots; 8.3 m/s)
gusting to 26 MPH (23 knots; 12.0 m/s)
Visibility: 10 or more miles (16+ km)
Ceiling: 2800 feet AGL
Clouds: scattered clouds at 1200 feet AGL
scattered clouds at 2000 feet AGL
overcast cloud deck at 2800 feet AGL
Weather: automated observation with no human augmentation;
there may or may not be significant weather present at this time